Naikai2 — JD2433 — position and weather

sailwx.info

Track history (hours):
 
Tides and Currents Weather Stations Pressure Air Temp Water Temp Dewpoint Dewpoint Depression Visibility Wind Speed Wind Dir Waves Ship Positions

Naikai2

Last reported at 2016-Aug-26 20:33 UTC. Time now 2016-Aug-27 02:59 UTC.
Position N 34°37' E 135°05'.

Length 28 m; draft 2.2 m.

Type: Other ship. MMSI: 431000283.

Date/timePositionNaut miles runAvg speedWind from/ knotsBaromVisibWave heightAir tempDewpointWater temp
2016-Aug-26 20:33N 34°37' E 135°05'1 1.1
2016-Aug-26 19:33N 34°36' E 135°04'6 6.2
2016-Aug-26 18:33N 34°30' E 135°06'1611.2
2016-Aug-26 17:05N 34°14' E 134°59'4 3.9
2016-Aug-26 16:07N 34°18' E 134°58'4 0.7
2016-Aug-26 10:08N 34°21' E 134°54'5 8.0
2016-Aug-26 09:32N 34°19' E 134°59'1414.6
2016-Aug-26 08:33N 34°29' E 135°12'1211.4
2016-Aug-26 07:31N 34°33' E 135°25'1111.8
2016-Aug-26 06:33N 34°37' E 135°12'2 0.0
2016-Aug-24 04:26N 34°39' E 135°10'1 0.6
2016-Aug-24 03:33N 34°38' E 135°10'10 9.3
2016-Aug-24 02:31N 34°37' E 134°58'7 7.4
2016-Aug-24 01:33N 34°35' E 135°07'6 5.7
2016-Aug-24 00:28N 34°37' E 134°59'2 1.5
2016-Aug-23 23:28N 34°37' E 135°01'6 7.1
2016-Aug-23 22:34N 34°34' E 135°07'6 5.9
2016-Aug-23 21:33N 34°39' E 135°10'0 0.0
2016-Aug-22 05:29N 34°39' E 135°10'1111.3
2016-Aug-22 04:29N 34°36' E 134°57'3 3.6
2016-Aug-22 03:33N 34°37' E 135°01'1212.1
2016-Aug-22 02:33N 34°34' E 135°15'7 7.5
2016-Aug-22 01:33N 34°33' E 135°24'7 7.0
2016-Aug-22 00:33N 34°35' E 135°16'6 0.3
2016-Aug-21 07:26N 34°38' E 135°10'1214.0
2016-Aug-21 06:33N 34°27' E 135°04'1 0.5
2016-Aug-21 04:33N 34°26' E 135°05'1414.2
2016-Aug-21 03:33N 34°33' E 135°20'3 3.2
2016-Aug-21 02:32N 34°34' E 135°24'1212.5
2016-Aug-21 01:33N 34°39' E 135°10'4 0.3
2016-Aug-20 11:34N 34°37' E 135°06'8 7.4
2016-Aug-20 10:31N 34°36' E 134°56'6 6.2
2016-Aug-20 09:34N 34°36' E 135°04'6 5.8
2016-Aug-20 08:33N 34°39' E 135°10'0 0.0
2016-Aug-20 02:18N 34°39' E 135°10'7 9.8
2016-Aug-20 01:33N 34°36' E 135°18'4 4.0
2016-Aug-20 00:33N 34°33' E 135°22'1111.0
2016-Aug-19 23:33N 34°28' E 135°11'1412.6
2016-Aug-19 22:26N 34°17' E 134°59'7 7.2
2016-Aug-19 21:30N 34°11' E 135°02'4 0.3
2016-Aug-19 06:33N 34°14' E 135°06'10 9.5
2016-Aug-19 05:31N 34°23' E 135°02'1516.0
2016-Aug-19 04:33N 34°32' E 135°17'7 7.2
2016-Aug-19 03:33N 34°33' E 135°25'1010.4
2016-Aug-19 02:33N 34°39' E 135°14'3 3.3
2016-Aug-19 01:33N 34°39' E 135°10'0 0.1
2016-Aug-18 20:34N 34°39' E 135°10'10 8.4
2016-Aug-18 19:24N 34°37' E 134°58'7 8.9
2016-Aug-18 18:33N 34°35' E 135°07'5 4.8
2016-Aug-18 17:33N 34°39' E 135°10'2 0.1
2016-Aug-18 03:11N 34°38' E 135°11'914.6
2016-Aug-18 02:33N 34°34' E 135°21'1 0.9
2016-Aug-18 01:30N 34°33' E 135°21'1111.3
2016-Aug-18 00:32N 34°27' E 135°10'1513.9
2016-Aug-17 23:27N 34°15' E 134°59'5 5.2
2016-Aug-17 22:29N 34°10' E 135°02'7 7.3
2016-Aug-17 21:33N 34°13' E 135°09'0 0.0
2016-Aug-17 04:16N 34°13' E 135°09'9 9.7
2016-Aug-17 03:17N 34°17' E 134°58'1115.4
2016-Aug-17 02:33N 34°26' E 135°06'1413.6
2016-Aug-17 01:33N 34°33' E 135°20'3 3.1
2016-Aug-17 00:33N 34°33' E 135°24'1010.3
2016-Aug-16 23:34N 34°37' E 135°12'  
Track history (hours):
 
Tides and Currents Weather Stations Pressure Air Temp Water Temp Dewpoint Dewpoint Depression Visibility Wind Speed Wind Dir Waves Ship Positions

Naikai2

Last reported at 2016-Aug-26 20:33 UTC. Time now 2016-Aug-27 02:59 UTC.
Position N 34°37' E 135°05'.

Length 28 m; draft 2.2 m.

Type: Other ship. MMSI: 431000283.

Date/timePositionNaut miles runAvg speedWind from/ knotsBaromVisibWave heightAir tempDewpointWater temp
2016-Aug-26 20:33N 34°37' E 135°05'1 1.1
2016-Aug-26 19:33N 34°36' E 135°04'6 6.2
2016-Aug-26 18:33N 34°30' E 135°06'1611.2
2016-Aug-26 17:05N 34°14' E 134°59'4 3.9
2016-Aug-26 16:07N 34°18' E 134°58'4 0.7
2016-Aug-26 10:08N 34°21' E 134°54'5 8.0
2016-Aug-26 09:32N 34°19' E 134°59'1414.6
2016-Aug-26 08:33N 34°29' E 135°12'1211.4
2016-Aug-26 07:31N 34°33' E 135°25'1111.8
2016-Aug-26 06:33N 34°37' E 135°12'2 0.0
2016-Aug-24 04:26N 34°39' E 135°10'1 0.6
2016-Aug-24 03:33N 34°38' E 135°10'10 9.3
2016-Aug-24 02:31N 34°37' E 134°58'7 7.4
2016-Aug-24 01:33N 34°35' E 135°07'6 5.7
2016-Aug-24 00:28N 34°37' E 134°59'2 1.5
2016-Aug-23 23:28N 34°37' E 135°01'6 7.1
2016-Aug-23 22:34N 34°34' E 135°07'6 5.9
2016-Aug-23 21:33N 34°39' E 135°10'0 0.0
2016-Aug-22 05:29N 34°39' E 135°10'1111.3
2016-Aug-22 04:29N 34°36' E 134°57'3 3.6
2016-Aug-22 03:33N 34°37' E 135°01'1212.1
2016-Aug-22 02:33N 34°34' E 135°15'7 7.5
2016-Aug-22 01:33N 34°33' E 135°24'7 7.0
2016-Aug-22 00:33N 34°35' E 135°16'6 0.3
2016-Aug-21 07:26N 34°38' E 135°10'1214.0
2016-Aug-21 06:33N 34°27' E 135°04'1 0.5
2016-Aug-21 04:33N 34°26' E 135°05'1414.2
2016-Aug-21 03:33N 34°33' E 135°20'3 3.2
2016-Aug-21 02:32N 34°34' E 135°24'1212.5
2016-Aug-21 01:33N 34°39' E 135°10'4 0.3
2016-Aug-20 11:34N 34°37' E 135°06'8 7.4
2016-Aug-20 10:31N 34°36' E 134°56'6 6.2
2016-Aug-20 09:34N 34°36' E 135°04'6 5.8
2016-Aug-20 08:33N 34°39' E 135°10'0 0.0
2016-Aug-20 02:18N 34°39' E 135°10'7 9.8
2016-Aug-20 01:33N 34°36' E 135°18'4 4.0
2016-Aug-20 00:33N 34°33' E 135°22'1111.0
2016-Aug-19 23:33N 34°28' E 135°11'1412.6
2016-Aug-19 22:26N 34°17' E 134°59'7 7.2
2016-Aug-19 21:30N 34°11' E 135°02'4 0.3
2016-Aug-19 06:33N 34°14' E 135°06'10 9.5
2016-Aug-19 05:31N 34°23' E 135°02'1516.0
2016-Aug-19 04:33N 34°32' E 135°17'7 7.2
2016-Aug-19 03:33N 34°33' E 135°25'1010.4
2016-Aug-19 02:33N 34°39' E 135°14'3 3.3
2016-Aug-19 01:33N 34°39' E 135°10'0 0.1
2016-Aug-18 20:34N 34°39' E 135°10'10 8.4
2016-Aug-18 19:24N 34°37' E 134°58'7 8.9
2016-Aug-18 18:33N 34°35' E 135°07'5 4.8
2016-Aug-18 17:33N 34°39' E 135°10'2 0.1
2016-Aug-18 03:11N 34°38' E 135°11'914.6
2016-Aug-18 02:33N 34°34' E 135°21'1 0.9
2016-Aug-18 01:30N 34°33' E 135°21'1111.3
2016-Aug-18 00:32N 34°27' E 135°10'1513.9
2016-Aug-17 23:27N 34°15' E 134°59'5 5.2
2016-Aug-17 22:29N 34°10' E 135°02'7 7.3
2016-Aug-17 21:33N 34°13' E 135°09'0 0.0
2016-Aug-17 04:16N 34°13' E 135°09'9 9.7
2016-Aug-17 03:17N 34°17' E 134°58'1115.4
2016-Aug-17 02:33N 34°26' E 135°06'1413.6
2016-Aug-17 01:33N 34°33' E 135°20'3 3.1
2016-Aug-17 00:33N 34°33' E 135°24'1010.3
2016-Aug-16 23:34N 34°37' E 135°12'  

Dump ship's entire track history